ADDS METAR Data INFO
IDs: Format: Raw Decoded Include TAF

Data at: 1047 UTC 19 Oct 2017

KVWU 191032Z AUTO 26011G16KT 10SM CLR 08/01 A2990 RMK AO2
KVWU 191012Z AUTO 26012G16KT 10SM CLR 08/01 A2990 RMK AO2
KVWU 190953Z AUTO 26010KT 10SM CLR 08/01 A2989 RMK AO2
KVWU 190932Z AUTO 25014G18KT 10SM CLR 08/00 A2989 RMK AO2
KVWU 190912Z AUTO 25013G19KT 10SM CLR 08/01 A2988 RMK AO2
KVWU 190853Z AUTO 25013G23KT 10SM CLR 08/00 A2988 RMK AO2
KVWU 190832Z AUTO 25012G17KT 10SM CLR 08/00 A2988 RMK AO2
KVWU 190812Z AUTO 26013G20KT 10SM CLR 08/M01 A2987 RMK AO2
KVWU 190752Z AUTO 26012G19KT 10SM CLR 08/01 A2987 RMK AO2
KVWU 190732Z AUTO 26014G20KT 10SM CLR 09/00 A2987 RMK AO2
KVWU 190712Z AUTO 26013G20KT 10SM CLR 09/00 A2986 RMK AO2
KVWU 190652Z AUTO 25015G21KT 10SM CLR 09/M01 A2986 RMK AO2
KVWU 190632Z AUTO 25013G21KT 10SM CLR 09/00 A2986 RMK AO2
KVWU 190612Z AUTO 26016G20KT 10SM CLR 09/00 A2984 RMK AO2
KVWU 190552Z AUTO 26016G20KT 10SM CLR 09/00 A2984 RMK AO2
KVWU 190532Z AUTO 26016G24KT 10SM CLR 09/M01 A2983 RMK AO2
KVWU 190512Z AUTO 27016G21KT 10SM CLR 09/00 A2983 RMK AO2
KVWU 190452Z AUTO 26016G24KT 10SM CLR 09/M01 A2983 RMK AO2
KVWU 190432Z AUTO 26013G21KT 10SM CLR 10/M01 A2983 RMK AO2
KVWU 190413Z AUTO 26015G23KT 10SM CLR 10/M01 A2983 RMK AO2
KVWU 190352Z AUTO 26015G21KT 10SM CLR 10/M01 A2982 RMK AO2
KVWU 190332Z AUTO 26015G24KT 10SM CLR 10/M01 A2982 RMK AO2
KVWU 190312Z AUTO 26020G26KT 10SM CLR 11/M02 A2982 RMK AO2
KVWU 190252Z AUTO 26018G28KT 10SM CLR 11/M02 A2981 RMK AO2
KVWU 190232Z AUTO 25016G20KT 10SM CLR 11/M01 A2981 RMK AO2
KVWU 190212Z AUTO 25015G25KT 10SM CLR 11/M02 A2980 RMK AO2
KVWU 190152Z AUTO 25015G24KT 10SM CLR 11/M02 A2979 RMK AO2
KVWU 190132Z AUTO 25014G23KT 10SM CLR 11/M01 A2979 RMK AO2
KVWU 190112Z AUTO 26015G24KT 10SM CLR 11/M02 A2979 RMK AO2
KVWU 190052Z AUTO 25016G22KT 10SM CLR 11/M01 A2978 RMK AO2
KVWU 190032Z AUTO 25015G22KT 10SM CLR 11/M01 A2979 RMK AO2
KVWU 190012Z AUTO 25016G22KT 10SM CLR 12/M02 A2978 RMK AO2
KVWU 182352Z AUTO 25015G21KT 10SM CLR 12/M01 A2977 RMK AO2
KVWU 182332Z AUTO 26016G27KT 10SM CLR 12/M02 A2976 RMK AO2
KVWU 182312Z AUTO 25017G26KT 10SM CLR 12/M02 A2975 RMK AO2
KVWU 182252Z AUTO 26019G25KT 10SM CLR 12/M03 A2975 RMK AO2
KVWU 182232Z AUTO 26017G24KT 10SM CLR 13/M02 A2975 RMK AO2
KVWU 182212Z AUTO 26018G26KT 10SM CLR 13/M01 A2974 RMK AO2
KVWU 182152Z AUTO 25018G26KT 10SM CLR 13/M01 A2974 RMK AO2
KVWU 182132Z AUTO 25015G24KT 10SM CLR 13/M01 RMK AO2
KVWU 182112Z AUTO 26014G22KT 10SM SCT080 13/M01 A2973 RMK AO2
KVWU 182052Z AUTO 25014G24KT 10SM CLR 13/00 A2972 RMK AO2
KVWU 182033Z AUTO 26014G23KT 10SM SCT080 14/00 A2972 RMK AO2
KVWU 182012Z AUTO 26015G21KT 10SM SCT080 SCT100 14/01 A2972 RMK AO2
KVWU 181952Z AUTO 26015G21KT 10SM SCT070 SCT090 14/01 RMK AO2
KVWU 181933Z AUTO 25015G23KT 10SM SCT070 13/01 A2971 RMK AO2
KVWU 181912Z AUTO 25015G20KT 10SM SCT060 SCT085 13/02 A2971 RMK AO2
KVWU 181852Z AUTO 25015G21KT 10SM SCT060 13/02 A2971 RMK AO2
KVWU 181832Z AUTO 25016G21KT 10SM SCT075 13/02 A2971 RMK AO2
KVWU 181812Z AUTO 25015G22KT 10SM SCT044 SCT065 SCT085 13/02 A2972 RMK AO2
KVWU 181752Z AUTO 26016G21KT 10SM SCT030 SCT044 BKN060 13/02 A2971 RMK AO2
KVWU 181732Z AUTO 26011G21KT 10SM SCT043 BKN050 OVC075 14/01 A2970 RMK AO2
KVWU 181712Z AUTO 28011G25KT 10SM SCT048 BKN060 OVC075 14/M02 A2970 RMK AO2
KVWU 181652Z AUTO 28014G20KT 10SM SCT032 BKN060 OVC075 14/01 A2969 RMK AO2
KVWU 181632Z AUTO 27017G26KT 10SM SCT031 SCT047 BKN075 15/00 A2969 RMK AO2
KVWU 181612Z AUTO 26013G21KT 10SM SCT060 SCT070 14/05 A2968 RMK AO2
KVWU 181552Z AUTO 25013G20KT 10SM SCT070 SCT080 14/06 A2967 RMK AO2
KVWU 181532Z AUTO 25013G18KT 10SM SCT065 SCT090 13/06 RMK AO2
KVWU 181512Z AUTO 25012G19KT 10SM SCT065 SCT075 13/06 A2965 RMK AO2
KVWU 181452Z AUTO 25015G22KT 10SM SCT095 13/06 A2964 RMK AO2
KVWU 181433Z AUTO 24012G17KT 10SM CLR 13/06 A2963 RMK AO2
KVWU 181412Z AUTO 23015G20KT 10SM CLR 14/05 A2960 RMK AO2
KVWU 181352Z AUTO 22013G17KT 10SM CLR 14/05 A2960 RMK AO2
KVWU 181332Z AUTO 23013G16KT 10SM SCT027 SCT065 14/06 A2960 RMK AO2
KVWU 181312Z AUTO 22009G16KT 10SM CLR 14/06 A2960 RMK AO2
KVWU 181252Z AUTO 22011KT 10SM CLR 14/04 A2959 RMK AO2
KVWU 181232Z AUTO 21008G14KT 183V243 10SM CLR 15/04 A2958 RMK AO2
KVWU 181212Z AUTO 21008G18KT 10SM CLR 15/04 A2958 RMK AO2
KVWU 181152Z AUTO 21009KT CLR 15/04 A2958 RMK AO2
KVWU 181132Z AUTO 22008G16KT 183V243 10SM CLR 15/04 RMK AO2
KVWU 181112Z AUTO 19009KT 10SM CLR 15/04 A2954 RMK AO2
KVWU 181052Z AUTO 20009G15KT 10SM CLR 15/04 A2956 RMK AO2
KVWU 181032Z AUTO 20007G18KT 163V223 10SM CLR 16/04 A2956 RMK AO2
KVWU 181012Z AUTO 19010G15KT 10SM CLR 16/04 A2956 RMK AO2
KVWU 180953Z AUTO 19009G17KT 163V223 10SM CLR 16/04 A2958 RMK AO2
KVWU 180932Z AUTO 19009G16KT 163V253 10SM CLR 16/04 A2958 RMK AO2
KVWU 180912Z AUTO 19008KT 10SM CLR 16/04 A2959 RMK AO2
KVWU 180852Z AUTO 19008KT 10SM CLR 16/04 A2959 RMK AO2
KVWU 180832Z AUTO 19011G17KT 173V233 10SM CLR 17/04 A2961 RMK AO2
KVWU 180812Z AUTO 19008G14KT 10SM CLR 16/05 A2962 RMK AO2
KVWU 180752Z AUTO 19007KT 10SM CLR 17/05 A2963 RMK AO2
KVWU 180732Z AUTO 19008KT 163V223 10SM CLR 17/04 A2963 RMK AO2
KVWU 180712Z AUTO 19007KT 10SM CLR 16/04 A2963 RMK AO2
KVWU 180652Z AUTO 18007KT 10SM CLR 16/04 A2964 RMK AO2
KVWU 180632Z AUTO 18007KT 143V213 10SM CLR 15/05 A2964 RMK AO2
KVWU 180612Z AUTO 18007KT 10SM CLR 15/05 A2965 RMK AO2
KVWU 180552Z AUTO 17006KT 10SM CLR 15/05 A2965 RMK AO2
KVWU 180532Z AUTO 17005KT 10SM CLR 14/05 A2966 RMK AO2
KVWU 180512Z AUTO 18006KT 10SM CLR 15/05 A2966 RMK AO2
KVWU 180452Z AUTO 18006KT 10SM CLR 16/05 A2967 RMK AO2
KVWU 180432Z AUTO 18008KT 10SM CLR 16/05 A2967 RMK AO2
KVWU 180412Z AUTO 18006KT 10SM CLR 16/05 A2968 RMK AO2
KVWU 180352Z AUTO 19008KT 10SM CLR 16/04 A2968 RMK AO2
KVWU 180332Z AUTO 18008KT 153V233 10SM CLR 16/04 A2969 RMK AO2
KVWU 180313Z AUTO 18007KT 10SM CLR 16/04 A2969 RMK AO2
KVWU 180252Z AUTO 18009G16KT 10SM CLR 16/04 A2970 RMK AO2
KVWU 180232Z AUTO 18009G15KT 153V213 10SM CLR 16/04 A2970 RMK AO2
KVWU 180212Z AUTO 18009KT 10SM CLR 16/04 A2970 RMK AO2
KVWU 180152Z AUTO 17008KT 10SM CLR 16/04 A2971 RMK AO2
KVWU 180132Z AUTO 17008KT 10SM CLR 16/04 A2971 RMK AO2
KVWU 180112Z AUTO 16005KT 10SM CLR 16/04 A2972 RMK AO2
KVWU 180052Z AUTO 17005KT 10SM CLR 16/04 A2973 RMK AO2
KVWU 180032Z AUTO 16005KT 10SM CLR 16/04 A2973 RMK AO2
KVWU 180012Z AUTO 16004KT 10SM CLR 17/03 A2974 RMK AO2
KVWU 172352Z AUTO 18004KT 10SM CLR 18/03 A2974 RMK AO2
KVWU 172332Z AUTO 18004KT 10SM CLR 18/03 A2974 RMK AO2
KVWU 172312Z AUTO 18005KT 10SM CLR 19/03 A2974 RMK AO2
KVWU 172252Z AUTO 18005KT 10SM SCT075 20/03 A2975 RMK AO2